地図

経路データ

SID SEASON NUMBER BASIN SUBBASIN NAME ISO_TIME NATURE LAT LON WMO_WIND WMO_PRES WMO_AGENCY TRACK_TYPE DIST2LAND LANDFALL IFLAG USA_AGENCY USA_ATCF_ID USA_LAT USA_LON USA_RECORD USA_STATUS USA_WIND USA_PRES USA_SSHS USA_R34_NE USA_R34_SE USA_R34_SW USA_R34_NW USA_R50_NE USA_R50_SE USA_R50_SW USA_R50_NW USA_R64_NE USA_R64_SE USA_R64_SW USA_R64_NW USA_POCI USA_ROCI USA_RMW USA_EYE TOKYO_LAT TOKYO_LON TOKYO_GRADE TOKYO_WIND TOKYO_PRES TOKYO_R50_DIR TOKYO_R50_LONG TOKYO_R50_SHORT TOKYO_R30_DIR TOKYO_R30_LONG TOKYO_R30_SHORT TOKYO_LAND CMA_LAT CMA_LON CMA_CAT CMA_WIND CMA_PRES HKO_LAT HKO_LON HKO_CAT HKO_WIND HKO_PRES NEWDELHI_LAT NEWDELHI_LON NEWDELHI_GRADE NEWDELHI_WIND NEWDELHI_PRES NEWDELHI_CI NEWDELHI_DP NEWDELHI_POCI REUNION_LAT REUNION_LON REUNION_TYPE REUNION_WIND REUNION_PRES REUNION_TNUM REUNION_CI REUNION_RMW REUNION_R34_NE REUNION_R34_SE REUNION_R34_SW REUNION_R34_NW REUNION_R50_NE REUNION_R50_SE REUNION_R50_SW REUNION_R50_NW REUNION_R64_NE REUNION_R64_SE REUNION_R64_SW REUNION_R64_NW BOM_LAT BOM_LON BOM_TYPE BOM_WIND BOM_PRES BOM_TNUM BOM_CI BOM_RMW BOM_R34_NE BOM_R34_SE BOM_R34_SW BOM_R34_NW BOM_R50_NE BOM_R50_SE BOM_R50_SW BOM_R50_NW BOM_R64_NE BOM_R64_SE BOM_R64_SW BOM_R64_NW BOM_ROCI BOM_POCI BOM_EYE BOM_POS_METHOD BOM_PRES_METHOD NADI_LAT NADI_LON NADI_CAT NADI_WIND NADI_PRES WELLINGTON_LAT WELLINGTON_LON WELLINGTON_WIND WELLINGTON_PRES DS824_LAT DS824_LON DS824_STAGE DS824_WIND DS824_PRES TD9636_LAT TD9636_LON TD9636_STAGE TD9636_WIND TD9636_PRES TD9635_LAT TD9635_LON TD9635_WIND TD9635_PRES TD9635_ROCI NEUMANN_LAT NEUMANN_LON NEUMANN_CLASS NEUMANN_WIND NEUMANN_PRES MLC_LAT MLC_LON MLC_CLASS MLC_WIND MLC_PRES USA_GUST BOM_GUST BOM_GUST_PER REUNION_GUST REUNION_GUST_PER USA_SEAHGT USA_SEARAD_NE USA_SEARAD_SE USA_SEARAD_SW USA_SEARAD_NW STORM_SPEED STORM_DIR
2021341S11106 2022 96 SI WA TERATAI 2021-12-07 00:00:00 NR -10.5000 106.100 PROVISIONAL 348 348 O_____________ tcvitals SI022021 -10.5000 106.100 29 1004 -1 1008 160 60 5 148
2021341S11106 2022 96 SI WA TERATAI 2021-12-07 03:00:00 NR -10.7233 106.241 PROVISIONAL 370 369 P_____________ SI022021 -10.7438 106.247 -1 5 150
2021341S11106 2022 96 SI WA TERATAI 2021-12-07 06:00:00 NR -10.9596 106.366 PROVISIONAL 400 400 P_____________ SI022021 -10.9881 106.383 -1 5 155
2021341S11106 2022 96 SI WA TERATAI 2021-12-07 09:00:00 NR -11.2062 106.467 PROVISIONAL 417 417 P_____________ SI022021 -11.2335 106.496 -1 5 162
2021341S11106 2022 96 SI WA TERATAI 2021-12-07 12:00:00 NR -11.4604 106.536 PROVISIONAL 448 445 P_____________ SI022021 -11.4807 106.574 -1 5 171
2021341S11106 2022 96 SI WA TERATAI 2021-12-07 15:00:00 NR -11.7196 106.562 PROVISIONAL 466 466 P_____________ SI022021 -11.7304 106.605 -1 5 0
2021341S11106 2022 96 SI WA TERATAI 2021-12-07 18:00:00 NR -11.9810 106.537 PROVISIONAL 502 502 P_____________ SI022021 -11.9830 106.578 -1 5 191
2021341S11106 2022 96 SI WA TERATAI 2021-12-07 21:00:00 NR -12.2421 106.453 PROVISIONAL 523 523 P_____________ SI022021 -12.2394 106.480 -1 6 204
2021341S11106 2022 96 SI WA TERATAI 2021-12-08 00:00:00 NR -12.5000 106.300 PROVISIONAL 562 562 O_____________ tcvitals SI022021 -12.5000 106.300 35 1005 0 40 30 30 55 1009 160 25 7 218
2021341S11106 2022 96 SI WA TERATAI 2021-12-08 03:00:00 NR -12.7645 106.031 PROVISIONAL 604 604 P_____________ SI022021 -12.7645 106.031 -1 8 228
2021341S11106 2022 96 SI WA TERATAI 2021-12-08 06:00:00 NR -13.0296 105.686 PROVISIONAL 631 631 P_____________ SI022021 -13.0296 105.686 -1 9 234
2021341S11106 2022 96 SI WA TERATAI 2021-12-08 09:00:00 NR -13.2909 105.284 PROVISIONAL 671 671 P_____________ SI022021 -13.2909 105.284 -1 10 238
2021341S11106 2022 96 SI WA TERATAI 2021-12-08 12:00:00 NR -13.5443 104.845 PROVISIONAL 705 705 P_____________ SI022021 -13.5443 104.845 -1 10 240
2021341S11106 2022 96 SI WA TERATAI 2021-12-08 15:00:00 NR -13.7858 104.388 PROVISIONAL 749 749 P_____________ SI022021 -13.7858 104.388 -1 10 242
2021341S11106 2022 96 SI WA TERATAI 2021-12-08 18:00:00 NR -14.0114 103.932 PROVISIONAL 788 788 P_____________ SI022021 -14.0114 103.932 -1 10 243
2021341S11106 2022 96 SI WA TERATAI 2021-12-08 21:00:00 NR -14.2174 103.496 PROVISIONAL 824 824 P_____________ SI022021 -14.2174 103.496 -1 9 244
2021341S11106 2022 96 SI WA TERATAI 2021-12-09 00:00:00 NR -14.4000 103.100 PROVISIONAL 862 862 O_____________ tcvitals SI022021 -14.4000 103.100 35 999 0 40 60 60 1010 145 30 8 245
2021341S11106 2022 96 SI WA TERATAI 2021-12-09 03:00:00 NR -14.5572 102.759 PROVISIONAL 897 897 P_____________ SI022021 -14.5572 102.759 -1 7 244
2021341S11106 2022 96 SI WA TERATAI 2021-12-09 06:00:00 NR -14.6922 102.467 PROVISIONAL 921 921 P_____________ SI022021 -14.6922 102.467 -1 6 244
2021341S11106 2022 96 SI WA TERATAI 2021-12-09 09:00:00 NR -14.8096 102.216 PROVISIONAL 947 947 P_____________ SI022021 -14.8096 102.216 -1 5 244
2021341S11106 2022 96 SI WA TERATAI 2021-12-09 12:00:00 NR -14.9138 101.994 PROVISIONAL 967 967 P_____________ SI022021 -14.9138 101.994 -1 5 244
2021341S11106 2022 96 SI WA TERATAI 2021-12-09 15:00:00 NR -15.0091 101.792 PROVISIONAL 988 988 P_____________ SI022021 -15.0091 101.792 -1 4 244
2021341S11106 2022 96 SI WA TERATAI 2021-12-09 18:00:00 NR -15.1000 101.600 PROVISIONAL 1008 O_____________ tcvitals SI022021 -15.1000 101.600 29 1006 -1 1010 150 50 4 244

IBTrACS Databaseについて

本データベースは、米国NOAAが公開する1842年以降の世界の熱帯低気圧のベストトラックデータアーカイブInternational Best Track Archive for Climate Stewardship (IBTrACS)を、ウェブで閲覧しやすい形式に変換したものです。

最終更新日:2022-01-14